sensor_id;sensor_type;location;lat;lon;timestamp;P1;durP1;ratioP1;P2;durP2;ratioP2
66380;SDS011;53177;52.648;1.214;2023-03-21T00:00:23;20.63;;;9.27;;
66380;SDS011;53177;52.648;1.214;2023-03-21T00:02:50;22.48;;;8.95;;
66380;SDS011;53177;52.648;1.214;2023-03-21T00:05:15;20.87;;;9.23;;
66380;SDS011;53177;52.648;1.214;2023-03-21T00:07:41;21.90;;;9.73;;
66380;SDS011;53177;52.648;1.214;2023-03-21T00:10:07;23.05;;;9.95;;
66380;SDS011;53177;52.648;1.214;2023-03-21T00:12:33;23.40;;;9.55;;
66380;SDS011;53177;52.648;1.214;2023-03-21T00:15:08;23.90;;;9.43;;
66380;SDS011;53177;52.648;1.214;2023-03-21T00:17:35;24.17;;;10.82;;
66380;SDS011;53177;52.648;1.214;2023-03-21T00:20:03;24.63;;;9.93;;
66380;SDS011;53177;52.648;1.214;2023-03-21T00:22:32;26.58;;;11.10;;
66380;SDS011;53177;52.648;1.214;2023-03-21T00:24:59;25.48;;;10.80;;
66380;SDS011;53177;52.648;1.214;2023-03-21T00:27:25;28.10;;;10.88;;
66380;SDS011;53177;52.648;1.214;2023-03-21T00:29:51;27.38;;;10.57;;
66380;SDS011;53177;52.648;1.214;2023-03-21T00:32:17;28.30;;;12.00;;
66380;SDS011;53177;52.648;1.214;2023-03-21T00:34:45;29.05;;;11.27;;
66380;SDS011;53177;52.648;1.214;2023-03-21T00:37:10;29.77;;;11.93;;
66380;SDS011;53177;52.648;1.214;2023-03-21T00:39:38;31.02;;;12.75;;
66380;SDS011;53177;52.648;1.214;2023-03-21T00:42:04;33.87;;;12.87;;
66380;SDS011;53177;52.648;1.214;2023-03-21T00:44:29;34.43;;;13.47;;
66380;SDS011;53177;52.648;1.214;2023-03-21T00:47:00;38.72;;;14.23;;
66380;SDS011;53177;52.648;1.214;2023-03-21T00:49:29;36.53;;;13.85;;
66380;SDS011;53177;52.648;1.214;2023-03-21T00:52:00;39.83;;;14.50;;
66380;SDS011;53177;52.648;1.214;2023-03-21T00:54:26;36.97;;;14.13;;
66380;SDS011;53177;52.648;1.214;2023-03-21T00:56:51;36.63;;;14.27;;
66380;SDS011;53177;52.648;1.214;2023-03-21T00:59:17;39.50;;;15.53;;
66380;SDS011;53177;52.648;1.214;2023-03-21T01:01:43;40.20;;;14.15;;
66380;SDS011;53177;52.648;1.214;2023-03-21T01:04:10;38.50;;;14.63;;
66380;SDS011;53177;52.648;1.214;2023-03-21T01:06:39;35.50;;;12.95;;
66380;SDS011;53177;52.648;1.214;2023-03-21T01:09:06;43.45;;;15.32;;
66380;SDS011;53177;52.648;1.214;2023-03-21T01:11:37;40.75;;;14.40;;
66380;SDS011;53177;52.648;1.214;2023-03-21T01:14:02;37.03;;;14.33;;
66380;SDS011;53177;52.648;1.214;2023-03-21T01:16:28;37.38;;;13.73;;
66380;SDS011;53177;52.648;1.214;2023-03-21T01:18:53;37.20;;;14.83;;
66380;SDS011;53177;52.648;1.214;2023-03-21T01:21:20;37.00;;;13.57;;
66380;SDS011;53177;52.648;1.214;2023-03-21T01:23:45;34.70;;;13.27;;
66380;SDS011;53177;52.648;1.214;2023-03-21T01:26:11;36.13;;;12.87;;
66380;SDS011;53177;52.648;1.214;2023-03-21T01:28:37;37.20;;;13.07;;
66380;SDS011;53177;52.648;1.214;2023-03-21T01:31:03;31.63;;;12.30;;
66380;SDS011;53177;52.648;1.214;2023-03-21T01:33:29;37.50;;;13.67;;
66380;SDS011;53177;52.648;1.214;2023-03-21T01:35:56;33.42;;;12.32;;
66380;SDS011;53177;52.648;1.214;2023-03-21T01:38:22;31.90;;;12.40;;
66380;SDS011;53177;52.648;1.214;2023-03-21T01:40:48;30.50;;;11.90;;
66380;SDS011;53177;52.648;1.214;2023-03-21T01:43:22;35.08;;;12.82;;
66380;SDS011;53177;52.648;1.214;2023-03-21T01:48:35;28.25;;;11.73;;
66380;SDS011;53177;52.648;1.214;2023-03-21T01:51:03;29.92;;;11.55;;
66380;SDS011;53177;52.648;1.214;2023-03-21T01:53:30;33.50;;;12.60;;
66380;SDS011;53177;52.648;1.214;2023-03-21T01:56:00;31.90;;;11.85;;
66380;SDS011;53177;52.648;1.214;2023-03-21T01:58:31;36.90;;;13.05;;
66380;SDS011;53177;52.648;1.214;2023-03-21T02:00:57;38.00;;;13.20;;
66380;SDS011;53177;52.648;1.214;2023-03-21T02:03:24;31.27;;;11.75;;
66380;SDS011;53177;52.648;1.214;2023-03-21T02:08:36;36.95;;;13.32;;
66380;SDS011;53177;52.648;1.214;2023-03-21T02:11:02;31.65;;;12.85;;
66380;SDS011;53177;52.648;1.214;2023-03-21T02:13:28;31.07;;;12.03;;
66380;SDS011;53177;52.648;1.214;2023-03-21T02:15:59;31.27;;;11.88;;
66380;SDS011;53177;52.648;1.214;2023-03-21T02:18:34;31.02;;;11.70;;
66380;SDS011;53177;52.648;1.214;2023-03-21T02:29:38;27.15;;;10.52;;
66380;SDS011;53177;52.648;1.214;2023-03-21T02:38:02;31.23;;;11.02;;
66380;SDS011;53177;52.648;1.214;2023-03-21T02:40:34;28.45;;;11.10;;
66380;SDS011;53177;52.648;1.214;2023-03-21T02:45:56;28.52;;;12.38;;
66380;SDS011;53177;52.648;1.214;2023-03-21T02:48:42;27.42;;;10.60;;
66380;SDS011;53177;52.648;1.214;2023-03-21T02:51:14;28.48;;;10.73;;
66380;SDS011;53177;52.648;1.214;2023-03-21T02:53:43;29.92;;;10.82;;
66380;SDS011;53177;52.648;1.214;2023-03-21T02:56:13;26.00;;;10.05;;
66380;SDS011;53177;52.648;1.214;2023-03-21T02:58:39;28.50;;;10.33;;
66380;SDS011;53177;52.648;1.214;2023-03-21T03:01:06;26.55;;;10.93;;
66380;SDS011;53177;52.648;1.214;2023-03-21T03:03:33;29.75;;;11.48;;
66380;SDS011;53177;52.648;1.214;2023-03-21T03:06:01;28.67;;;10.90;;
66380;SDS011;53177;52.648;1.214;2023-03-21T03:08:41;26.65;;;10.98;;
66380;SDS011;53177;52.648;1.214;2023-03-21T03:19:01;28.52;;;11.10;;
66380;SDS011;53177;52.648;1.214;2023-03-21T03:24:30;28.63;;;11.53;;
66380;SDS011;53177;52.648;1.214;2023-03-21T03:29:29;28.65;;;12.15;;
66380;SDS011;53177;52.648;1.214;2023-03-21T03:32:00;35.92;;;14.63;;
66380;SDS011;53177;52.648;1.214;2023-03-21T03:34:32;34.35;;;13.05;;
66380;SDS011;53177;52.648;1.214;2023-03-21T03:37:04;34.53;;;14.53;;
66380;SDS011;53177;52.648;1.214;2023-03-21T03:39:47;35.15;;;14.40;;
66380;SDS011;53177;52.648;1.214;2023-03-21T03:42:22;37.47;;;14.57;;
66380;SDS011;53177;52.648;1.214;2023-03-21T03:44:52;36.55;;;14.30;;
66380;SDS011;53177;52.648;1.214;2023-03-21T03:47:28;35.27;;;14.40;;
66380;SDS011;53177;52.648;1.214;2023-03-21T03:50:04;36.17;;;14.65;;
66380;SDS011;53177;52.648;1.214;2023-03-21T03:52:44;34.70;;;12.90;;
66380;SDS011;53177;52.648;1.214;2023-03-21T03:55:15;33.35;;;13.70;;
66380;SDS011;53177;52.648;1.214;2023-03-21T03:57:43;31.53;;;12.57;;
66380;SDS011;53177;52.648;1.214;2023-03-21T04:00:10;32.67;;;13.55;;
66380;SDS011;53177;52.648;1.214;2023-03-21T04:02:39;33.55;;;13.98;;
66380;SDS011;53177;52.648;1.214;2023-03-21T04:05:04;33.93;;;12.67;;
66380;SDS011;53177;52.648;1.214;2023-03-21T04:07:30;29.95;;;12.68;;
66380;SDS011;53177;52.648;1.214;2023-03-21T04:09:55;32.03;;;12.20;;
66380;SDS011;53177;52.648;1.214;2023-03-21T04:12:22;30.35;;;12.68;;
66380;SDS011;53177;52.648;1.214;2023-03-21T04:14:48;28.63;;;12.57;;
66380;SDS011;53177;52.648;1.214;2023-03-21T04:17:14;32.38;;;12.68;;
66380;SDS011;53177;52.648;1.214;2023-03-21T04:19:40;32.38;;;13.20;;
66380;SDS011;53177;52.648;1.214;2023-03-21T04:22:05;32.70;;;12.97;;
66380;SDS011;53177;52.648;1.214;2023-03-21T04:24:31;29.75;;;12.13;;
66380;SDS011;53177;52.648;1.214;2023-03-21T04:26:58;32.50;;;13.40;;
66380;SDS011;53177;52.648;1.214;2023-03-21T04:29:26;35.40;;;13.68;;
66380;SDS011;53177;52.648;1.214;2023-03-21T04:31:53;31.42;;;13.07;;
66380;SDS011;53177;52.648;1.214;2023-03-21T04:34:19;35.57;;;13.60;;
66380;SDS011;53177;52.648;1.214;2023-03-21T04:36:48;34.72;;;13.68;;
66380;SDS011;53177;52.648;1.214;2023-03-21T04:39:15;32.40;;;13.27;;
66380;SDS011;53177;52.648;1.214;2023-03-21T04:41:42;31.98;;;12.63;;
66380;SDS011;53177;52.648;1.214;2023-03-21T04:44:09;30.75;;;11.52;;
66380;SDS011;53177;52.648;1.214;2023-03-21T04:46:36;25.33;;;10.90;;
66380;SDS011;53177;52.648;1.214;2023-03-21T04:49:02;27.35;;;11.48;;
66380;SDS011;53177;52.648;1.214;2023-03-21T04:51:28;28.55;;;11.00;;
66380;SDS011;53177;52.648;1.214;2023-03-21T04:53:54;28.45;;;11.68;;
66380;SDS011;53177;52.648;1.214;2023-03-21T04:56:25;27.25;;;10.35;;
66380;SDS011;53177;52.648;1.214;2023-03-21T04:58:56;27.53;;;11.57;;
66380;SDS011;53177;52.648;1.214;2023-03-21T05:01:25;23.65;;;10.35;;
66380;SDS011;53177;52.648;1.214;2023-03-21T05:03:55;24.20;;;9.63;;
66380;SDS011;53177;52.648;1.214;2023-03-21T05:06:24;27.40;;;10.13;;
66380;SDS011;53177;52.648;1.214;2023-03-21T05:08:50;28.98;;;10.63;;
66380;SDS011;53177;52.648;1.214;2023-03-21T05:11:16;26.63;;;10.50;;
66380;SDS011;53177;52.648;1.214;2023-03-21T05:13:41;28.17;;;9.97;;
66380;SDS011;53177;52.648;1.214;2023-03-21T05:16:06;25.40;;;10.70;;
66380;SDS011;53177;52.648;1.214;2023-03-21T05:18:32;26.35;;;11.13;;
66380;SDS011;53177;52.648;1.214;2023-03-21T05:20:58;29.67;;;10.50;;
66380;SDS011;53177;52.648;1.214;2023-03-21T05:23:24;33.37;;;11.20;;
66380;SDS011;53177;52.648;1.214;2023-03-21T05:25:50;27.87;;;11.60;;
66380;SDS011;53177;52.648;1.214;2023-03-21T05:28:16;29.20;;;11.65;;
66380;SDS011;53177;52.648;1.214;2023-03-21T05:30:44;26.40;;;10.93;;
66380;SDS011;53177;52.648;1.214;2023-03-21T05:33:11;26.67;;;12.18;;
66380;SDS011;53177;52.648;1.214;2023-03-21T05:35:37;23.43;;;10.30;;
66380;SDS011;53177;52.648;1.214;2023-03-21T05:38:02;28.90;;;10.85;;
66380;SDS011;53177;52.648;1.214;2023-03-21T05:40:28;27.80;;;11.53;;
66380;SDS011;53177;52.648;1.214;2023-03-21T05:42:55;29.23;;;11.70;;
66380;SDS011;53177;52.648;1.214;2023-03-21T05:45:20;31.83;;;11.60;;
66380;SDS011;53177;52.648;1.214;2023-03-21T05:47:46;28.27;;;11.25;;
66380;SDS011;53177;52.648;1.214;2023-03-21T05:50:12;33.30;;;12.33;;
66380;SDS011;53177;52.648;1.214;2023-03-21T05:52:39;32.97;;;12.88;;
66380;SDS011;53177;52.648;1.214;2023-03-21T05:55:04;31.57;;;11.93;;
66380;SDS011;53177;52.648;1.214;2023-03-21T05:57:31;29.27;;;11.90;;
66380;SDS011;53177;52.648;1.214;2023-03-21T05:59:59;31.48;;;12.18;;
66380;SDS011;53177;52.648;1.214;2023-03-21T06:02:25;28.83;;;12.15;;
66380;SDS011;53177;52.648;1.214;2023-03-21T06:04:50;34.67;;;12.80;;
66380;SDS011;53177;52.648;1.214;2023-03-21T06:07:15;27.97;;;12.40;;
66380;SDS011;53177;52.648;1.214;2023-03-21T06:09:41;28.83;;;12.43;;
66380;SDS011;53177;52.648;1.214;2023-03-21T06:12:07;30.95;;;12.00;;
66380;SDS011;53177;52.648;1.214;2023-03-21T06:14:32;30.90;;;12.77;;
66380;SDS011;53177;52.648;1.214;2023-03-21T06:16:58;30.63;;;12.50;;
66380;SDS011;53177;52.648;1.214;2023-03-21T06:19:23;33.70;;;12.25;;
66380;SDS011;53177;52.648;1.214;2023-03-21T06:21:48;29.43;;;11.97;;
66380;SDS011;53177;52.648;1.214;2023-03-21T06:24:14;31.63;;;12.07;;
66380;SDS011;53177;52.648;1.214;2023-03-21T06:26:41;29.00;;;12.07;;
66380;SDS011;53177;52.648;1.214;2023-03-21T06:29:07;28.07;;;11.63;;
66380;SDS011;53177;52.648;1.214;2023-03-21T06:31:32;31.05;;;11.80;;
66380;SDS011;53177;52.648;1.214;2023-03-21T06:33:58;26.47;;;11.17;;
66380;SDS011;53177;52.648;1.214;2023-03-21T06:36:23;26.63;;;10.77;;
66380;SDS011;53177;52.648;1.214;2023-03-21T06:38:49;28.93;;;10.90;;
66380;SDS011;53177;52.648;1.214;2023-03-21T06:41:14;28.50;;;11.90;;
66380;SDS011;53177;52.648;1.214;2023-03-21T06:43:41;35.08;;;11.73;;
66380;SDS011;53177;52.648;1.214;2023-03-21T06:46:06;29.13;;;10.65;;
66380;SDS011;53177;52.648;1.214;2023-03-21T06:48:32;25.80;;;10.90;;
66380;SDS011;53177;52.648;1.214;2023-03-21T06:50:57;25.97;;;10.67;;
66380;SDS011;53177;52.648;1.214;2023-03-21T06:53:23;23.33;;;10.43;;
66380;SDS011;53177;52.648;1.214;2023-03-21T06:55:51;31.88;;;11.27;;
66380;SDS011;53177;52.648;1.214;2023-03-21T06:58:20;29.40;;;10.82;;
66380;SDS011;53177;52.648;1.214;2023-03-21T07:00:47;25.52;;;11.13;;
66380;SDS011;53177;52.648;1.214;2023-03-21T07:03:12;30.40;;;11.10;;
66380;SDS011;53177;52.648;1.214;2023-03-21T07:05:38;33.28;;;10.52;;
66380;SDS011;53177;52.648;1.214;2023-03-21T07:08:04;27.00;;;10.93;;
66380;SDS011;53177;52.648;1.214;2023-03-21T07:10:30;31.88;;;10.90;;
66380;SDS011;53177;52.648;1.214;2023-03-21T07:12:57;27.93;;;10.83;;
66380;SDS011;53177;52.648;1.214;2023-03-21T07:15:23;25.52;;;10.85;;
66380;SDS011;53177;52.648;1.214;2023-03-21T07:17:48;32.80;;;11.20;;
66380;SDS011;53177;52.648;1.214;2023-03-21T07:20:14;27.25;;;10.90;;
66380;SDS011;53177;52.648;1.214;2023-03-21T07:22:41;32.15;;;11.68;;
66380;SDS011;53177;52.648;1.214;2023-03-21T07:25:06;29.70;;;10.98;;
66380;SDS011;53177;52.648;1.214;2023-03-21T07:27:32;31.98;;;10.30;;
66380;SDS011;53177;52.648;1.214;2023-03-21T07:29:58;25.67;;;10.93;;
66380;SDS011;53177;52.648;1.214;2023-03-21T07:32:23;28.70;;;10.60;;
66380;SDS011;53177;52.648;1.214;2023-03-21T07:34:54;30.60;;;12.10;;
66380;SDS011;53177;52.648;1.214;2023-03-21T07:37:19;28.63;;;11.10;;
66380;SDS011;53177;52.648;1.214;2023-03-21T07:39:45;28.35;;;10.80;;
66380;SDS011;53177;52.648;1.214;2023-03-21T07:42:11;29.23;;;10.63;;
66380;SDS011;53177;52.648;1.214;2023-03-21T07:44:36;27.83;;;10.68;;
66380;SDS011;53177;52.648;1.214;2023-03-21T07:47:02;26.00;;;10.70;;
66380;SDS011;53177;52.648;1.214;2023-03-21T07:49:28;26.83;;;10.10;;
66380;SDS011;53177;52.648;1.214;2023-03-21T07:51:55;27.67;;;11.02;;
66380;SDS011;53177;52.648;1.214;2023-03-21T07:54:20;25.63;;;10.67;;
66380;SDS011;53177;52.648;1.214;2023-03-21T07:56:47;26.75;;;10.10;;
66380;SDS011;53177;52.648;1.214;2023-03-21T07:59:12;26.98;;;10.38;;
66380;SDS011;53177;52.648;1.214;2023-03-21T08:01:38;28.53;;;11.00;;
66380;SDS011;53177;52.648;1.214;2023-03-21T08:04:03;27.30;;;10.03;;
66380;SDS011;53177;52.648;1.214;2023-03-21T08:06:29;29.90;;;10.73;;
66380;SDS011;53177;52.648;1.214;2023-03-21T08:08:56;27.45;;;10.77;;
66380;SDS011;53177;52.648;1.214;2023-03-21T08:11:22;27.50;;;9.95;;
66380;SDS011;53177;52.648;1.214;2023-03-21T08:13:48;23.75;;;10.82;;
66380;SDS011;53177;52.648;1.214;2023-03-21T08:16:15;21.65;;;8.82;;
66380;SDS011;53177;52.648;1.214;2023-03-21T08:18:41;19.83;;;8.80;;
66380;SDS011;53177;52.648;1.214;2023-03-21T08:21:07;22.58;;;9.90;;
66380;SDS011;53177;52.648;1.214;2023-03-21T08:23:32;24.73;;;10.57;;
66380;SDS011;53177;52.648;1.214;2023-03-21T08:25:58;28.27;;;11.40;;
66380;SDS011;53177;52.648;1.214;2023-03-21T08:28:23;21.47;;;9.37;;
66380;SDS011;53177;52.648;1.214;2023-03-21T08:30:49;19.77;;;8.37;;
66380;SDS011;53177;52.648;1.214;2023-03-21T08:33:15;23.65;;;9.20;;
66380;SDS011;53177;52.648;1.214;2023-03-21T08:35:42;22.40;;;8.23;;
66380;SDS011;53177;52.648;1.214;2023-03-21T08:38:08;22.63;;;8.65;;
66380;SDS011;53177;52.648;1.214;2023-03-21T08:40:34;21.33;;;8.63;;
66380;SDS011;53177;52.648;1.214;2023-03-21T08:43:00;19.80;;;7.97;;
66380;SDS011;53177;52.648;1.214;2023-03-21T08:45:25;22.92;;;8.65;;
66380;SDS011;53177;52.648;1.214;2023-03-21T08:47:51;20.37;;;7.43;;
66380;SDS011;53177;52.648;1.214;2023-03-21T08:50:18;18.83;;;8.52;;
66380;SDS011;53177;52.648;1.214;2023-03-21T08:52:46;17.27;;;6.70;;
66380;SDS011;53177;52.648;1.214;2023-03-21T08:55:12;17.67;;;7.30;;
66380;SDS011;53177;52.648;1.214;2023-03-21T08:57:38;19.38;;;7.70;;
66380;SDS011;53177;52.648;1.214;2023-03-21T09:00:04;16.23;;;6.78;;
66380;SDS011;53177;52.648;1.214;2023-03-21T09:02:37;19.55;;;6.43;;
66380;SDS011;53177;52.648;1.214;2023-03-21T09:05:02;19.60;;;7.10;;
66380;SDS011;53177;52.648;1.214;2023-03-21T09:07:30;19.02;;;7.20;;
66380;SDS011;53177;52.648;1.214;2023-03-21T09:09:58;19.38;;;6.60;;
66380;SDS011;53177;52.648;1.214;2023-03-21T09:12:24;14.07;;;6.07;;
66380;SDS011;53177;52.648;1.214;2023-03-21T09:14:49;16.90;;;6.55;;
66380;SDS011;53177;52.648;1.214;2023-03-21T09:17:17;17.83;;;7.22;;
66380;SDS011;53177;52.648;1.214;2023-03-21T09:19:42;19.83;;;7.40;;
66380;SDS011;53177;52.648;1.214;2023-03-21T09:22:08;16.58;;;6.25;;
66380;SDS011;53177;52.648;1.214;2023-03-21T09:24:41;23.50;;;10.37;;
66380;SDS011;53177;52.648;1.214;2023-03-21T09:27:07;12.80;;;5.90;;
66380;SDS011;53177;52.648;1.214;2023-03-21T09:29:32;18.77;;;6.57;;
66380;SDS011;53177;52.648;1.214;2023-03-21T09:31:58;12.60;;;6.03;;
66380;SDS011;53177;52.648;1.214;2023-03-21T09:34:25;16.70;;;6.10;;
66380;SDS011;53177;52.648;1.214;2023-03-21T09:36:51;15.87;;;5.87;;
66380;SDS011;53177;52.648;1.214;2023-03-21T09:39:21;15.05;;;6.50;;
66380;SDS011;53177;52.648;1.214;2023-03-21T09:50:32;14.27;;;5.75;;
66380;SDS011;53177;52.648;1.214;2023-03-21T09:55:34;17.08;;;5.93;;
66380;SDS011;53177;52.648;1.214;2023-03-21T09:58:04;19.63;;;5.75;;
66380;SDS011;53177;52.648;1.214;2023-03-21T10:00:41;16.95;;;6.28;;
66380;SDS011;53177;52.648;1.214;2023-03-21T10:03:16;11.68;;;5.38;;
66380;SDS011;53177;52.648;1.214;2023-03-21T10:05:47;9.57;;;5.10;;
66380;SDS011;53177;52.648;1.214;2023-03-21T10:08:20;13.60;;;5.72;;
66380;SDS011;53177;52.648;1.214;2023-03-21T10:10:52;12.70;;;5.40;;
66380;SDS011;53177;52.648;1.214;2023-03-21T10:13:26;13.57;;;5.97;;
66380;SDS011;53177;52.648;1.214;2023-03-21T10:16:14;11.75;;;5.22;;
66380;SDS011;53177;52.648;1.214;2023-03-21T10:18:43;12.70;;;5.03;;
66380;SDS011;53177;52.648;1.214;2023-03-21T10:21:11;14.45;;;5.20;;
66380;SDS011;53177;52.648;1.214;2023-03-21T10:23:44;14.90;;;5.53;;
66380;SDS011;53177;52.648;1.214;2023-03-21T10:26:10;13.40;;;5.10;;
66380;SDS011;53177;52.648;1.214;2023-03-21T10:28:36;12.98;;;5.00;;
66380;SDS011;53177;52.648;1.214;2023-03-21T10:31:06;12.35;;;4.78;;
66380;SDS011;53177;52.648;1.214;2023-03-21T10:33:36;11.80;;;4.50;;
66380;SDS011;53177;52.648;1.214;2023-03-21T10:38:33;8.75;;;3.70;;
66380;SDS011;53177;52.648;1.214;2023-03-21T10:41:01;7.15;;;3.42;;
66380;SDS011;53177;52.648;1.214;2023-03-21T10:45:52;8.20;;;3.30;;
66380;SDS011;53177;52.648;1.214;2023-03-21T10:48:19;8.52;;;3.40;;
66380;SDS011;53177;52.648;1.214;2023-03-21T10:50:46;8.70;;;3.30;;
66380;SDS011;53177;52.648;1.214;2023-03-21T10:53:57;8.37;;;3.20;;
66380;SDS011;53177;52.648;1.214;2023-03-21T10:56:06;9.13;;;3.35;;
66380;SDS011;53177;52.648;1.214;2023-03-21T10:58:35;8.20;;;3.05;;
66380;SDS011;53177;52.648;1.214;2023-03-21T11:01:07;6.40;;;2.80;;
66380;SDS011;53177;52.648;1.214;2023-03-21T11:03:39;8.13;;;2.83;;
66380;SDS011;53177;52.648;1.214;2023-03-21T11:08:45;11.20;;;3.08;;
66380;SDS011;53177;52.648;1.214;2023-03-21T11:11:25;7.18;;;2.60;;
66380;SDS011;53177;52.648;1.214;2023-03-21T11:13:56;8.60;;;2.60;;
66380;SDS011;53177;52.648;1.214;2023-03-21T11:16:34;8.70;;;2.78;;
66380;SDS011;53177;52.648;1.214;2023-03-21T11:19:11;7.20;;;2.40;;
66380;SDS011;53177;52.648;1.214;2023-03-21T11:21:39;6.15;;;2.30;;
66380;SDS011;53177;52.648;1.214;2023-03-21T11:24:05;8.65;;;2.40;;
66380;SDS011;53177;52.648;1.214;2023-03-21T11:26:35;6.10;;;2.22;;
66380;SDS011;53177;52.648;1.214;2023-03-21T11:31:39;6.43;;;2.20;;
66380;SDS011;53177;52.648;1.214;2023-03-21T11:34:06;6.57;;;2.60;;
66380;SDS011;53177;52.648;1.214;2023-03-21T11:36:33;6.07;;;2.60;;
66380;SDS011;53177;52.648;1.214;2023-03-21T11:39:48;6.57;;;2.20;;
66380;SDS011;53177;52.648;1.214;2023-03-21T11:41:56;7.30;;;2.53;;
66380;SDS011;53177;52.648;1.214;2023-03-21T11:44:32;7.97;;;2.58;;
66380;SDS011;53177;52.648;1.214;2023-03-21T11:47:07;8.20;;;2.28;;
66380;SDS011;53177;52.648;1.214;2023-03-21T11:49:35;8.37;;;2.20;;
66380;SDS011;53177;52.648;1.214;2023-03-21T11:52:04;8.20;;;2.10;;
66380;SDS011;53177;52.648;1.214;2023-03-21T12:00:06;7.78;;;2.30;;
66380;SDS011;53177;52.648;1.214;2023-03-21T12:02:55;4.90;;;1.97;;
66380;SDS011;53177;52.648;1.214;2023-03-21T12:06:09;6.28;;;1.83;;
66380;SDS011;53177;52.648;1.214;2023-03-21T12:08:50;7.07;;;1.70;;
66380;SDS011;53177;52.648;1.214;2023-03-21T12:11:20;4.97;;;1.63;;
66380;SDS011;53177;52.648;1.214;2023-03-21T12:14:16;5.63;;;1.98;;
66380;SDS011;53177;52.648;1.214;2023-03-21T12:16:54;6.77;;;1.60;;
66380;SDS011;53177;52.648;1.214;2023-03-21T12:19:48;3.97;;;1.40;;
66380;SDS011;53177;52.648;1.214;2023-03-21T12:23:11;7.00;;;1.45;;
66380;SDS011;53177;52.648;1.214;2023-03-21T12:25:16;7.10;;;1.45;;
66380;SDS011;53177;52.648;1.214;2023-03-21T12:27:56;5.25;;;1.23;;
66380;SDS011;53177;52.648;1.214;2023-03-21T12:41:44;5.07;;;1.50;;
66380;SDS011;53177;52.648;1.214;2023-03-21T12:45:29;7.33;;;1.67;;
66380;SDS011;53177;52.648;1.214;2023-03-21T12:47:36;6.43;;;1.70;;
66380;SDS011;53177;52.648;1.214;2023-03-21T12:50:12;4.95;;;1.40;;
66380;SDS011;53177;52.648;1.214;2023-03-21T12:52:44;5.00;;;1.55;;
66380;SDS011;53177;52.648;1.214;2023-03-21T12:55:20;5.13;;;1.63;;
66380;SDS011;53177;52.648;1.214;2023-03-21T12:58:02;6.53;;;1.57;;
66380;SDS011;53177;52.648;1.214;2023-03-21T13:00:42;5.38;;;1.40;;
66380;SDS011;53177;52.648;1.214;2023-03-21T13:03:18;5.65;;;1.60;;
66380;SDS011;53177;52.648;1.214;2023-03-21T13:05:55;5.55;;;1.65;;
66380;SDS011;53177;52.648;1.214;2023-03-21T13:08:24;8.07;;;2.47;;
66380;SDS011;53177;52.648;1.214;2023-03-21T13:10:51;8.07;;;1.70;;
66380;SDS011;53177;52.648;1.214;2023-03-21T13:16:13;7.88;;;1.52;;
66380;SDS011;53177;52.648;1.214;2023-03-21T13:22:09;5.43;;;1.80;;
66380;SDS011;53177;52.648;1.214;2023-03-21T13:35:10;7.03;;;2.05;;
66380;SDS011;53177;52.648;1.214;2023-03-21T13:37:48;6.60;;;1.30;;
66380;SDS011;53177;52.648;1.214;2023-03-21T13:40:36;5.40;;;1.33;;
66380;SDS011;53177;52.648;1.214;2023-03-21T13:43:28;5.90;;;1.60;;
66380;SDS011;53177;52.648;1.214;2023-03-21T13:46:04;5.53;;;1.55;;
66380;SDS011;53177;52.648;1.214;2023-03-21T13:48:59;6.78;;;1.50;;
66380;SDS011;53177;52.648;1.214;2023-03-21T14:04:30;5.25;;;1.33;;
66380;SDS011;53177;52.648;1.214;2023-03-21T14:06:57;7.03;;;1.70;;
66380;SDS011;53177;52.648;1.214;2023-03-21T14:09:40;5.70;;;1.65;;
66380;SDS011;53177;52.648;1.214;2023-03-21T14:12:12;7.30;;;1.63;;
66380;SDS011;53177;52.648;1.214;2023-03-21T14:14:40;9.30;;;1.50;;
66380;SDS011;53177;52.648;1.214;2023-03-21T14:17:10;5.72;;;1.48;;
66380;SDS011;53177;52.648;1.214;2023-03-21T14:19:37;6.38;;;1.65;;
66380;SDS011;53177;52.648;1.214;2023-03-21T14:22:02;7.18;;;1.50;;
66380;SDS011;53177;52.648;1.214;2023-03-21T14:24:28;5.57;;;1.43;;
66380;SDS011;53177;52.648;1.214;2023-03-21T14:26:53;6.17;;;1.40;;
66380;SDS011;53177;52.648;1.214;2023-03-21T14:29:29;6.70;;;1.70;;
66380;SDS011;53177;52.648;1.214;2023-03-21T14:31:57;6.47;;;1.57;;
66380;SDS011;53177;52.648;1.214;2023-03-21T14:34:24;5.65;;;1.40;;
66380;SDS011;53177;52.648;1.214;2023-03-21T14:36:51;5.63;;;1.30;;
66380;SDS011;53177;52.648;1.214;2023-03-21T14:39:21;4.77;;;1.20;;
66380;SDS011;53177;52.648;1.214;2023-03-21T14:41:53;7.50;;;1.50;;
66380;SDS011;53177;52.648;1.214;2023-03-21T14:44:24;5.35;;;1.20;;
66380;SDS011;53177;52.648;1.214;2023-03-21T14:46:52;6.85;;;1.30;;
66380;SDS011;53177;52.648;1.214;2023-03-21T14:49:26;5.07;;;1.10;;
66380;SDS011;53177;52.648;1.214;2023-03-21T14:51:55;6.82;;;1.30;;
66380;SDS011;53177;52.648;1.214;2023-03-21T14:54:22;5.40;;;1.27;;
66380;SDS011;53177;52.648;1.214;2023-03-21T14:56:51;7.55;;;1.48;;
66380;SDS011;53177;52.648;1.214;2023-03-21T14:59:21;5.32;;;1.17;;
66380;SDS011;53177;52.648;1.214;2023-03-21T15:01:49;6.17;;;1.20;;
66380;SDS011;53177;52.648;1.214;2023-03-21T15:04:18;5.68;;;1.00;;
66380;SDS011;53177;52.648;1.214;2023-03-21T15:06:52;5.63;;;1.20;;
66380;SDS011;53177;52.648;1.214;2023-03-21T15:09:21;6.57;;;1.20;;
66380;SDS011;53177;52.648;1.214;2023-03-21T15:11:52;6.32;;;1.30;;
66380;SDS011;53177;52.648;1.214;2023-03-21T15:14:19;8.03;;;1.13;;
66380;SDS011;53177;52.648;1.214;2023-03-21T15:16:49;7.13;;;1.02;;
66380;SDS011;53177;52.648;1.214;2023-03-21T15:19:16;4.88;;;1.60;;
66380;SDS011;53177;52.648;1.214;2023-03-21T15:21:48;5.30;;;1.17;;
66380;SDS011;53177;52.648;1.214;2023-03-21T15:24:17;4.38;;;1.00;;
66380;SDS011;53177;52.648;1.214;2023-03-21T15:27:05;8.97;;;1.50;;
66380;SDS011;53177;52.648;1.214;2023-03-21T15:29:36;9.05;;;1.83;;
66380;SDS011;53177;52.648;1.214;2023-03-21T15:32:03;5.18;;;1.20;;
66380;SDS011;53177;52.648;1.214;2023-03-21T15:34:30;4.70;;;1.00;;
66380;SDS011;53177;52.648;1.214;2023-03-21T15:36:58;6.93;;;1.42;;
66380;SDS011;53177;52.648;1.214;2023-03-21T15:39:29;6.88;;;1.35;;
66380;SDS011;53177;52.648;1.214;2023-03-21T15:45:13;7.72;;;1.10;;
66380;SDS011;53177;52.648;1.214;2023-03-21T15:47:50;6.75;;;1.30;;
66380;SDS011;53177;52.648;1.214;2023-03-21T15:50:34;6.78;;;1.83;;
66380;SDS011;53177;52.648;1.214;2023-03-21T15:53:05;5.95;;;0.90;;
66380;SDS011;53177;52.648;1.214;2023-03-21T15:58:43;5.18;;;1.10;;
66380;SDS011;53177;52.648;1.214;2023-03-21T16:01:19;4.03;;;0.90;;
66380;SDS011;53177;52.648;1.214;2023-03-21T16:03:47;6.95;;;1.20;;
66380;SDS011;53177;52.648;1.214;2023-03-21T16:06:22;5.63;;;1.08;;
66380;SDS011;53177;52.648;1.214;2023-03-21T16:09:07;5.70;;;1.15;;
66380;SDS011;53177;52.648;1.214;2023-03-21T16:11:40;7.07;;;1.33;;
66380;SDS011;53177;52.648;1.214;2023-03-21T16:14:12;6.57;;;1.35;;
66380;SDS011;53177;52.648;1.214;2023-03-21T16:16:38;6.07;;;1.40;;
66380;SDS011;53177;52.648;1.214;2023-03-21T16:19:04;6.93;;;1.53;;
66380;SDS011;53177;52.648;1.214;2023-03-21T16:21:31;7.07;;;1.23;;
66380;SDS011;53177;52.648;1.214;2023-03-21T16:23:58;7.43;;;1.73;;
66380;SDS011;53177;52.648;1.214;2023-03-21T16:26:27;5.28;;;1.17;;
66380;SDS011;53177;52.648;1.214;2023-03-21T16:28:54;5.82;;;1.20;;
66380;SDS011;53177;52.648;1.214;2023-03-21T16:31:21;7.10;;;1.67;;
66380;SDS011;53177;52.648;1.214;2023-03-21T16:33:48;4.80;;;1.10;;
66380;SDS011;53177;52.648;1.214;2023-03-21T16:36:19;7.53;;;1.50;;